Estación de Quillota

Ultimos registro cada 15 minutos 73
Estación Fecha / Hora Temperatura Humedad Lluvia Velocidad Dirección Radiación Presion
73 Quillota 04-05-2026 18:00 22,1 58 0 1,8 180 0 1012,5
72 Quillota 04-05-2026 17:45 23,3 55 0 0,9 219 11 1012,1
71 Quillota 04-05-2026 17:30 24,4 51 0 0,4 230 26 1012
70 Quillota 04-05-2026 17:15 24,8 49 0 0,9 234 58 1012,1
69 Quillota 04-05-2026 17:00 25,5 47 0 1,3 207 102 1012,2
68 Quillota 04-05-2026 16:45 25,6 45 0 1,3 230 146 1012,3
67 Quillota 04-05-2026 16:30 25,7 44 0 1,3 249 193 1012,5
66 Quillota 04-05-2026 16:15 25,4 44 0 2,2 190 232 1012,5
65 Quillota 04-05-2026 16:00 25,6 43 0 1,8 213 272 1012,6
64 Quillota 04-05-2026 15:45 25,8 39 0 3,1 237 309 1012,3
63 Quillota 04-05-2026 15:30 26,2 37 0 2,2 237 350 1012,2
62 Quillota 04-05-2026 15:15 26,5 35 0 3,1 261 380 1012,5
61 Quillota 04-05-2026 15:00 26,3 32 0 2,2 242 422 1012,5
60 Quillota 04-05-2026 14:45 26,2 32 0 1,8 248 462 1012,7
59 Quillota 04-05-2026 14:30 25,7 32 0 1,8 272 357 1012,9
58 Quillota 04-05-2026 14:15 25,7 29 0 1,3 223 378 1013,1
57 Quillota 04-05-2026 14:00 25,7 30 0 1,3 261 485 1013,1
56 Quillota 04-05-2026 13:45 25,6 28 0 0,9 287 329 1013,4
55 Quillota 04-05-2026 13:30 25,5 27 0 0 280 543 1013,7
54 Quillota 04-05-2026 13:15 25,1 28 0 0,9 265 541 1014,1
53 Quillota 04-05-2026 13:00 25,1 27 0 1,3 340 457 1014,5
52 Quillota 04-05-2026 12:45 24,5 28 0 0,9 277 561 1014,8
51 Quillota 04-05-2026 12:30 23,9 28 0 0,4 234 582 1014,9
50 Quillota 04-05-2026 12:15 23,4 30 0 2,7 276 573 1015
49 Quillota 04-05-2026 12:00 22,8 31 0 1,3 259 570 1015,3
48 Quillota 04-05-2026 11:45 22,6 31 0 2,7 288 503 1015,3
47 Quillota 04-05-2026 11:30 21,9 32 0 0,4 256 541 1015,1
46 Quillota 04-05-2026 11:15 21,1 35 0 0,9 277 522 1015,3
45 Quillota 04-05-2026 11:00 20 36 0 0,4 301 489 1015,6
44 Quillota 04-05-2026 10:45 19,3 39 0 0,9 256 468 1015,5
43 Quillota 04-05-2026 10:30 18,6 41 0 1,8 276 427 1015,7
42 Quillota 04-05-2026 10:15 17,9 43 0 0,9 276 345 1015,7
41 Quillota 04-05-2026 10:00 17,3 43 0 0,9 185 262 1015,7
40 Quillota 04-05-2026 09:45 15,8 49 0 0,4 327 330 1015,7
39 Quillota 04-05-2026 09:30 14,1 52 0 0 267 311 1015,4
38 Quillota 04-05-2026 09:15 12,6 57 0 0,9 279 272 1015,5
37 Quillota 04-05-2026 09:00 10,4 64 0 0,9 185 251 1015,5
36 Quillota 04-05-2026 08:45 9,1 66 0 0,9 185 142 1015,4
35 Quillota 04-05-2026 08:30 7,4 71 0 0 185 46 1015,4
34 Quillota 04-05-2026 08:15 5,8 72 0 0 155 90 1015,6
33 Quillota 04-05-2026 08:00 5,6 71 0 0,4 102 16 1015,1
32 Quillota 04-05-2026 07:45 6,7 68 0 0,4 224 11 1015
31 Quillota 04-05-2026 07:30 4,7 76 0 0,9 110 7 1014,9
30 Quillota 04-05-2026 07:15 4,7 74 0 0 257 0 1015
29 Quillota 04-05-2026 07:00 5,3 71 0 0,4 299 0 1015
28 Quillota 04-05-2026 06:45 5,7 69 0 0 300 0 1014,8
27 Quillota 04-05-2026 06:30 6,2 70 0 0,4 194 0 1014,8
26 Quillota 04-05-2026 06:15 6,7 68 0 0,9 194 0 1014,8
25 Quillota 04-05-2026 06:00 6,6 67 0 0 176 0 1014,6
24 Quillota 04-05-2026 05:45 5,5 71 0 1,3 185 0 1014,6
23 Quillota 04-05-2026 05:30 6,3 67 0 0,9 277 0 1014,6
22 Quillota 04-05-2026 05:15 5,4 70 0 0,4 19 0 1014,6
21 Quillota 04-05-2026 05:00 6 69 0 0,9 17 0 1014,3
20 Quillota 04-05-2026 04:45 6,4 67 0 0,4 13 0 1014,2
19 Quillota 04-05-2026 04:30 6,9 66 0 0 125 0 1014,2
18 Quillota 04-05-2026 04:15 6,3 68 0 0 125 0 1014,4
17 Quillota 04-05-2026 04:00 4,8 72 0 0,9 125 0 1014,5
16 Quillota 04-05-2026 03:45 5,2 70 0 0 148 0 1014,5
15 Quillota 04-05-2026 03:30 5,8 68 0 0 148 0 1014,5
14 Quillota 04-05-2026 03:15 6,4 68 0 0 148 0 1014,6
13 Quillota 04-05-2026 03:00 6,7 67 0 0,4 146 0 1014,6
12 Quillota 04-05-2026 02:45 6,7 66 0 0,4 135 0 1014,5
11 Quillota 04-05-2026 02:30 7,7 61 0 0 134 0 1014,7
10 Quillota 04-05-2026 02:15 8,8 58 0 0,4 134 0 1014,9
9 Quillota 04-05-2026 02:00 7,9 61 0 0,9 121 0 1015,1
8 Quillota 04-05-2026 01:45 6,8 66 0 0,9 120 0 1015,3
7 Quillota 04-05-2026 01:30 6,6 67 0 0,4 190 0 1015,7
6 Quillota 04-05-2026 01:15 7,8 63 0 0,4 190 0 1015,5
5 Quillota 04-05-2026 01:00 7,7 63 0 0 252 0 1015,8
4 Quillota 04-05-2026 00:45 7,5 63 0 0 84 0 1015,8
3 Quillota 04-05-2026 00:30 7,8 62 0 0 84 0 1015,7
2 Quillota 04-05-2026 00:15 7,7 63 0 0,9 83 0 1015,8
1 Quillota 04-05-2026 00:00 7,8 63 0 0 160 0 1016,2